This is the latest recevied weather packets stored in our database for station/object XE2RCS-34. If no packets are shown the sender has not sent any weather packets the latest 10 day(s).
| Time | Temp. | Humidity | Pressure | Rain* | Wind** | Luminosity | Snow |
|---|---|---|---|---|---|---|---|
| 1777223293 | 24.44° C | 24% | 1045.9 hPa | - | - | - | - |
| 1777222393 | 23.89° C | 24% | 1046 hPa | - | - | - | - |
| 1777221493 | 23.33° C | 24% | 1046.1 hPa | - | - | - | - |
| 1777220593 | 23.33° C | 25% | 1046 hPa | - | - | - | - |
| 1777219692 | 22.78° C | 26% | 1046 hPa | - | - | - | - |
| 1777218792 | 22.22° C | 26% | 1046 hPa | - | - | - | - |
| 1777217892 | 22.22° C | 25% | 1045.9 hPa | - | - | - | - |
| 1777216992 | 21.67° C | 27% | 1045.8 hPa | - | - | - | - |
| 1777216092 | 21.11° C | 28% | 1045.8 hPa | - | - | - | - |
| 1777215192 | 20.56° C | 31% | 1045.8 hPa | - | - | - | - |
| 1777214292 | 20.56° C | 31% | 1045.7 hPa | - | - | - | - |
| 1777213392 | 20° C | 31% | 1045.7 hPa | - | - | - | - |
| 1777212492 | 20° C | 32% | 1045.5 hPa | - | - | - | - |
| 1777211595 | 20° C | 32% | 1045.4 hPa | - | - | - | - |
| 1777210695 | 19.44° C | 32% | 1045.3 hPa | - | - | - | - |
| 1777209794 | 19.44° C | 31% | 1045.3 hPa | - | - | - | - |
| 1777208894 | 19.44° C | 31% | 1045.2 hPa | - | - | - | - |
| 1777207994 | 19.44° C | 31% | 1045.1 hPa | - | - | - | - |
| 1777207094 | 19.44° C | 31% | 1044.8 hPa | - | - | - | - |
| 1777206194 | 19.44° C | 31% | 1044.8 hPa | - | - | - | - |
| 1777205294 | 19.44° C | 31% | 1044.6 hPa | - | - | - | - |
| 1777204394 | 20° C | 30% | 1044.5 hPa | - | - | - | - |
| 1777203494 | 20° C | 30% | 1044.4 hPa | - | - | - | - |
| 1777202594 | 20° C | 29% | 1044.2 hPa | - | - | - | - |
| 1777201694 | 20° C | 30% | 1044.1 hPa | - | - | - | - |
* Rain since midnight (hover to see other rain measurements)
** Current wind speed in m/s (hover to see current wind gust speed)